Time;durP1;ratioP1;P1;durP2;ratioP2;P2;SDS_P1;SDS_P2;PMS_P1;PMS_P2;Temp;Humidity;BMP_temperature;BMP_pressure;BME280_temperature;BME280_humidity;BME280_pressure;Samples;Min_cycle;Max_cycle;Signal;HPM_P1;HPM_P2
2024/01/20 00:01:55;;;;;;;3.22;1.30;;;;;;;18.56;35.41;102200.31;5007890;28;20048;-88
2024/01/20 00:04:20;;;;;;;4.00;2.20;;;;;;;18.79;35.28;102233.41;4955781;28;20034;-88
2024/01/20 00:06:46;;;;;;;3.88;1.58;;;;;;;18.64;35.60;102226.88;4992156;28;20033;-89
2024/01/20 00:09:15;;;;;;;2.28;1.60;;;;;;;18.53;35.64;102197.97;4937379;28;21214;-87
2024/01/20 00:11:41;;;;;;;2.83;1.52;;;;;;;18.69;35.50;102233.41;5022001;28;20099;-87
2024/01/20 00:14:06;;;;;;;2.47;1.55;;;;;;;18.70;35.38;102239.53;4940301;28;20057;-87
2024/01/20 00:16:32;;;;;;;2.42;1.63;;;;;;;18.60;35.25;102222.81;4987855;28;20034;-87
2024/01/20 00:18:57;;;;;;;2.78;1.45;;;;;;;18.61;35.49;102221.84;4934832;28;20091;-87
2024/01/20 00:21:23;;;;;;;2.00;1.25;;;;;;;18.39;35.47;102194.75;4984011;28;20418;-88
2024/01/20 00:23:50;;;;;;;2.90;1.83;;;;;;;18.63;35.54;102228.69;4975139;28;20069;-86
2024/01/20 00:26:16;;;;;;;2.08;1.65;;;;;;;18.60;35.63;102222.81;4966987;28;20037;-87
2024/01/20 00:28:42;;;;;;;2.75;1.50;;;;;;;18.57;35.44;102231.00;4988790;28;20072;-87
2024/01/20 00:31:07;;;;;;;2.80;1.50;;;;;;;18.41;35.60;102216.53;4943662;28;20048;-87
2024/01/20 00:33:35;;;;;;;1.80;1.40;;;;;;;18.44;35.53;102220.72;5007287;28;20037;-86
2024/01/20 00:36:01;;;;;;;2.28;1.42;;;;;;;18.40;35.66;102217.53;4987690;28;20038;-87
2024/01/20 00:38:27;;;;;;;2.83;1.60;;;;;;;18.45;35.51;102225.00;5021610;28;20351;-86
2024/01/20 00:40:53;;;;;;;3.42;1.77;;;;;;;18.33;35.72;102203.22;4953034;28;20042;-87
2024/01/20 00:43:18;;;;;;;2.90;1.77;;;;;;;18.52;35.60;102244.63;5007042;28;20049;-86
2024/01/20 00:45:45;;;;;;;2.78;1.63;;;;;;;18.50;35.73;102246.56;4942449;28;20042;-86
2024/01/20 00:48:10;;;;;;;2.47;1.60;;;;;;;18.38;35.65;102226.53;5007790;28;20144;-88
2024/01/20 00:50:36;;;;;;;2.72;1.55;;;;;;;18.35;35.69;102230.28;4956704;28;20045;-87
2024/01/20 00:53:02;;;;;;;3.45;2.00;;;;;;;18.34;35.64;102239.16;4988243;28;20037;-86
2024/01/20 00:55:27;;;;;;;2.85;1.70;;;;;;;18.28;35.94;102231.78;4977208;28;20053;-86
2024/01/20 00:57:53;;;;;;;4.32;1.90;;;;;;;17.92;35.87;102169.13;4966256;28;20365;-88
2024/01/20 01:00:19;;;;;;;3.28;1.45;;;;;;;18.44;35.89;102252.34;5010846;28;20128;-85
2024/01/20 01:02:44;;;;;;;2.13;1.67;;;;;;;18.36;35.58;102236.41;5022405;28;20056;-87
2024/01/20 01:05:10;;;;;;;3.75;1.70;;;;;;;18.26;36.04;102231.09;4967920;28;20041;-87
2024/01/20 01:07:36;;;;;;;2.67;1.63;;;;;;;18.37;35.95;102248.59;5005319;28;20505;-86
2024/01/20 01:10:03;;;;;;;3.08;1.77;;;;;;;18.25;35.79;102233.84;4986294;28;20034;-86
2024/01/20 01:12:29;;;;;;;4.60;2.10;;;;;;;18.22;35.64;102232.34;5003975;28;20663;-87
2024/01/20 01:14:55;;;;;;;2.47;2.13;;;;;;;18.14;35.81;102213.72;4953965;28;20068;-86
2024/01/20 01:17:21;;;;;;;2.88;1.80;;;;;;;18.38;35.78;102259.03;4993931;28;20068;-87
2024/01/20 01:19:47;;;;;;;3.03;1.70;;;;;;;18.37;35.87;102264.44;5003989;28;20103;-86
2024/01/20 01:22:12;;;;;;;3.70;1.63;;;;;;;18.12;35.76;102229.66;4990045;28;20479;-86
2024/01/20 01:24:38;;;;;;;2.50;1.60;;;;;;;18.30;36.05;102255.38;4945447;28;20057;-86
2024/01/20 01:27:05;;;;;;;3.92;1.88;;;;;;;18.28;35.94;102260.78;5000230;28;20055;-86
2024/01/20 01:29:30;;;;;;;2.28;1.75;;;;;;;18.29;35.88;102262.44;4941004;28;20041;-86
2024/01/20 01:31:56;;;;;;;3.47;1.95;;;;;;;18.11;35.98;102238.53;5003113;28;20068;-86
2024/01/20 01:34:21;;;;;;;2.55;1.65;;;;;;;18.06;35.85;102246.03;4958055;28;20037;-86
2024/01/20 01:36:47;;;;;;;3.05;1.70;;;;;;;18.19;35.85;102252.88;4988423;28;20029;-86
2024/01/20 01:39:12;;;;;;;1.88;1.42;;;;;;;18.08;36.04;102245.88;4938707;28;20096;-86
2024/01/20 01:41:38;;;;;;;3.25;2.00;;;;;;;18.11;35.86;102242.97;4920569;28;20369;-86
2024/01/20 01:44:03;;;;;;;2.88;1.80;;;;;;;18.28;35.84;102279.25;5017632;28;20058;-86
2024/01/20 01:46:30;;;;;;;3.42;1.80;;;;;;;18.06;35.96;102258.38;4952382;28;20042;-86
2024/01/20 01:48:56;;;;;;;2.05;1.70;;;;;;;18.02;36.15;102251.69;5020693;28;20052;-86
2024/01/20 01:51:22;;;;;;;2.25;1.70;;;;;;;17.97;36.04;102254.75;4972513;28;20045;-86
2024/01/20 01:53:48;;;;;;;2.55;1.77;;;;;;;18.08;35.94;102267.81;5005167;28;20103;-86
2024/01/20 01:56:14;;;;;;;2.63;1.95;;;;;;;18.04;36.14;102279.59;4939028;28;20043;-87
2024/01/20 01:58:42;;;;;;;4.30;1.75;;;;;;;18.14;36.10;102284.91;5002352;28;20048;-87
2024/01/20 02:01:08;;;;;;;2.33;1.58;;;;;;;18.02;36.14;102273.63;4953057;28;20579;-86
2024/01/20 02:03:35;;;;;;;2.85;1.70;;;;;;;18.01;36.02;102271.94;4999838;28;20042;-87
2024/01/20 02:06:01;;;;;;;3.53;1.98;;;;;;;18.05;36.03;102281.25;4987790;28;20048;-87
2024/01/20 02:08:28;;;;;;;4.07;1.70;;;;;;;18.19;35.90;102290.63;5006844;28;20053;-87
2024/01/20 02:10:55;;;;;;;3.13;2.13;;;;;;;17.80;36.17;102236.91;4951618;28;20060;-87
2024/01/20 02:13:21;;;;;;;3.28;1.70;;;;;;;18.14;36.23;102290.19;4988853;28;20049;-86
2024/01/20 02:15:48;;;;;;;2.38;1.42;;;;;;;17.80;36.05;102253.56;4948384;28;20033;-87
2024/01/20 02:18:14;;;;;;;3.47;1.70;;;;;;;18.08;36.17;102295.97;4986561;28;20220;-87
2024/01/20 02:20:40;;;;;;;2.55;1.70;;;;;;;18.02;35.91;102278.88;4936866;28;20046;-85
2024/01/20 02:23:05;;;;;;;3.22;2.05;;;;;;;17.89;36.38;102262.47;5005526;28;20041;-85
2024/01/20 02:25:31;;;;;;;2.85;1.80;;;;;;;17.87;36.18;102271.47;4982214;28;20037;-86
2024/01/20 02:27:56;;;;;;;3.67;2.00;;;;;;;18.03;36.23;102298.19;5023162;28;20038;-86
2024/01/20 02:30:22;;;;;;;3.85;2.13;;;;;;;17.86;36.10;102260.09;4956841;28;20099;-86
2024/01/20 02:32:47;;;;;;;2.65;1.92;;;;;;;17.87;36.27;102269.66;4987815;28;20049;-86
2024/01/20 02:35:13;;;;;;;3.92;2.03;;;;;;;17.77;36.22;102266.13;4938455;28;20038;-86
2024/01/20 02:37:40;;;;;;;3.05;1.88;;;;;;;17.89;36.24;102288.81;4989486;28;20041;-86
2024/01/20 02:40:07;;;;;;;2.80;1.67;;;;;;;18.01;36.27;102300.94;4958519;28;20042;-86
2024/01/20 02:42:32;;;;;;;2.70;1.80;;;;;;;17.79;36.20;102272.13;5022508;28;20053;-85
2024/01/20 02:44:58;;;;;;;2.22;1.95;;;;;;;17.97;36.02;102301.34;4959451;28;20045;-86
2024/01/20 02:47:24;;;;;;;2.17;1.75;;;;;;;17.98;36.30;102310.94;4973688;28;20042;-86
2024/01/20 02:49:49;;;;;;;2.67;1.58;;;;;;;17.80;36.24;102285.19;5008933;28;20041;-86
2024/01/20 02:52:15;;;;;;;2.38;1.90;;;;;;;17.98;36.35;102317.03;4939968;28;21458;-85
2024/01/20 02:54:40;;;;;;;3.75;1.90;;;;;;;17.83;36.38;102299.06;5012880;28;20734;-86
2024/01/20 02:57:06;;;;;;;2.58;1.90;;;;;;;17.70;36.39;102273.75;4926461;28;20844;-86
2024/01/20 02:59:31;;;;;;;3.25;1.90;;;;;;;17.76;36.51;102291.66;5000202;28;20740;-86
2024/01/20 03:01:58;;;;;;;2.42;1.80;;;;;;;17.85;36.38;102299.75;4950960;28;20413;-86
2024/01/20 03:04:23;;;;;;;2.40;1.90;;;;;;;17.75;36.34;102292.63;5008513;28;20396;-85
2024/01/20 03:06:49;;;;;;;2.70;2.13;;;;;;;17.59;36.29;102267.66;4957511;28;20041;-85
2024/01/20 03:09:15;;;;;;;3.90;2.00;;;;;;;17.88;36.54;102324.03;4965788;28;20041;-87
2024/01/20 03:11:42;;;;;;;3.30;2.25;;;;;;;17.76;36.29;102289.00;4960360;28;20382;-85
2024/01/20 03:14:11;;;;;;;3.22;2.20;;;;;;;17.65;36.35;102273.28;5008092;28;20038;-86
2024/01/20 03:16:38;;;;;;;3.67;2.08;;;;;;;17.95;36.20;102319.91;4953568;28;20735;-86
2024/01/20 03:19:04;;;;;;;4.43;2.05;;;;;;;17.79;36.61;102301.94;5020904;28;20386;-85
2024/01/20 03:21:29;;;;;;;4.07;2.20;;;;;;;17.57;36.38;102264.34;4960244;28;20033;-85
2024/01/20 03:23:55;;;;;;;2.20;1.90;;;;;;;17.84;36.40;102314.72;5008684;28;20505;-85
2024/01/20 03:26:21;;;;;;;4.00;2.08;;;;;;;17.70;36.43;102299.25;4925003;28;20033;-86
2024/01/20 03:28:47;;;;;;;3.30;2.15;;;;;;;17.65;36.48;102293.50;5006401;28;20525;-86
2024/01/20 03:31:12;;;;;;;4.25;2.50;;;;;;;17.79;36.50;102315.13;4974743;28;20025;-86
2024/01/20 03:33:38;;;;;;;3.58;2.10;;;;;;;17.68;36.50;102288.84;4992156;28;20045;-86
2024/01/20 03:36:05;;;;;;;3.55;2.20;;;;;;;17.44;36.42;102251.38;5006680;28;20115;-85
2024/01/20 03:38:31;;;;;;;3.50;2.20;;;;;;;17.83;36.29;102325.41;4933148;28;20049;-87
2024/01/20 03:40:56;;;;;;;4.88;2.55;;;;;;;17.48;36.59;102271.22;4991754;28;20044;-85
2024/01/20 03:43:22;;;;;;;4.35;2.40;;;;;;;17.77;36.52;102322.34;4944499;28;20878;-86
2024/01/20 03:45:47;;;;;;;3.58;2.00;;;;;;;17.76;36.39;102327.69;4995172;28;20048;-86
2024/01/20 03:48:13;;;;;;;3.53;2.35;;;;;;;17.17;36.63;102238.72;4952638;28;20037;-86
2024/01/20 03:50:39;;;;;;;3.55;2.38;;;;;;;17.67;36.56;102317.94;4992021;28;20465;-87
2024/01/20 03:53:05;;;;;;;4.97;2.60;;;;;;;17.42;36.39;102280.50;4975402;28;20179;-87
2024/01/20 03:55:31;;;;;;;4.07;2.60;;;;;;;17.50;36.46;102274.56;4992128;28;20084;-86
2024/01/20 03:57:57;;;;;;;4.97;2.90;;;;;;;17.67;36.48;102329.28;5006193;28;20393;-86
2024/01/20 04:00:23;;;;;;;3.55;2.53;;;;;;;17.75;36.60;102344.47;4973981;28;20041;-86
2024/01/20 04:02:48;;;;;;;3.95;2.47;;;;;;;17.66;36.60;102334.69;5005871;28;20664;-86
2024/01/20 04:05:14;;;;;;;3.22;2.55;;;;;;;17.40;36.47;102297.34;4978548;28;20663;-86
2024/01/20 04:07:39;;;;;;;5.32;2.83;;;;;;;17.69;36.63;102358.19;5006274;28;20510;-86
2024/01/20 04:10:05;;;;;;;4.30;2.65;;;;;;;17.66;36.78;102359.25;4942798;28;20127;-87
2024/01/20 04:12:31;;;;;;;3.55;2.45;;;;;;;17.61;36.55;102347.44;5020650;28;20045;-88
2024/01/20 04:14:56;;;;;;;3.90;2.38;;;;;;;17.56;36.57;102334.63;5010283;28;20037;-88
2024/01/20 04:17:22;;;;;;;3.47;2.45;;;;;;;17.56;36.49;102346.94;4987734;28;20138;-87
2024/01/20 04:19:48;;;;;;;3.78;2.50;;;;;;;17.65;36.66;102365.47;4956529;28;20045;-86
2024/01/20 04:22:13;;;;;;;4.55;2.67;;;;;;;17.52;36.61;102341.94;5007310;28;20463;-86
2024/01/20 04:24:39;;;;;;;4.60;2.63;;;;;;;17.57;36.77;102340.72;4956771;28;20041;-86
2024/01/20 04:27:04;;;;;;;3.25;2.55;;;;;;;17.65;36.22;102364.63;4991544;28;20044;-86
2024/01/20 04:29:30;;;;;;;3.83;2.55;;;;;;;17.42;36.79;102332.31;4951134;28;20045;-86
2024/01/20 04:31:56;;;;;;;4.07;2.90;;;;;;;17.17;36.72;102286.09;5023916;28;20033;-86
2024/01/20 04:34:21;;;;;;;5.90;2.80;;;;;;;17.54;36.72;102336.56;4982482;28;20056;-85
2024/01/20 04:36:47;;;;;;;4.65;2.80;;;;;;;17.39;36.81;102325.50;5001509;28;20524;-85
2024/01/20 04:39:12;;;;;;;4.63;2.70;;;;;;;17.39;36.50;102325.50;4941722;28;20501;-86
2024/01/20 04:41:38;;;;;;;5.57;2.88;;;;;;;17.47;36.69;102336.25;4990950;28;20045;-85
2024/01/20 04:44:04;;;;;;;5.82;3.10;;;;;;;17.27;36.73;102313.34;4925879;28;20057;-85
2024/01/20 04:46:30;;;;;;;3.65;3.20;;;;;;;17.60;36.63;102366.84;4975537;28;20142;-85
2024/01/20 04:48:56;;;;;;;6.30;2.85;;;;;;;17.56;36.41;102365.41;4965319;28;20128;-84
2024/01/20 04:51:21;;;;;;;3.67;2.70;;;;;;;17.34;36.74;102338.22;4963756;28;20149;-85
2024/01/20 04:53:48;;;;;;;3.17;2.60;;;;;;;17.41;36.86;102355.16;4998417;28;20041;-85
2024/01/20 04:56:19;;;;;;;3.72;2.80;;;;;;;17.36;36.51;102340.72;4960377;28;20076;-87
2024/01/20 04:58:45;;;;;;;4.80;2.90;;;;;;;17.30;36.61;102335.97;4970914;28;20086;-85
2024/01/20 05:01:11;;;;;;;3.50;2.53;;;;;;;17.48;36.77;102358.97;5013255;28;20096;-85
2024/01/20 05:03:36;;;;;;;5.53;3.08;;;;;;;17.52;36.65;102370.09;4945440;28;20041;-84
2024/01/20 05:06:02;;;;;;;3.58;2.70;;;;;;;17.36;36.72;102351.25;4986212;28;20041;-85
2024/01/20 05:08:27;;;;;;;7.25;3.20;;;;;;;17.41;36.80;102357.78;4954874;28;20449;-85
2024/01/20 05:10:53;;;;;;;5.00;2.83;;;;;;;17.27;36.78;102333.59;4970609;28;20042;-85
2024/01/20 05:13:18;;;;;;;4.47;3.05;;;;;;;17.52;36.81;102388.53;4934726;28;20038;-85
2024/01/20 05:15:44;;;;;;;3.97;2.90;;;;;;;17.33;36.87;102356.75;4968388;28;20343;-84
2024/01/20 05:18:09;;;;;;;5.05;3.10;;;;;;;17.47;36.92;102388.06;4985996;28;20042;-85
2024/01/20 05:20:35;;;;;;;5.32;2.97;;;;;;;17.25;36.97;102359.22;4953636;28;20049;-85
2024/01/20 05:23:01;;;;;;;5.03;3.15;;;;;;;17.40;36.95;102385.09;4968044;28;20343;-85
2024/01/20 05:25:26;;;;;;;6.22;3.38;;;;;;;16.96;36.80;102298.41;4939457;28;20766;-85
2024/01/20 05:27:52;;;;;;;4.82;3.38;;;;;;;17.45;36.86;102390.84;5001881;28;20433;-85
2024/01/20 05:30:17;;;;;;;4.70;3.10;;;;;;;17.30;36.77;102367.56;4934293;28;20542;-85
2024/01/20 05:32:43;;;;;;;4.53;3.15;;;;;;;17.37;36.77;102384.50;4965915;28;20498;-85
2024/01/20 05:35:08;;;;;;;4.45;3.20;;;;;;;17.46;36.88;102403.03;4987572;28;20045;-84
2024/01/20 05:37:34;;;;;;;5.28;3.30;;;;;;;17.26;36.79;102374.88;4977522;28;20120;-84
2024/01/20 05:39:59;;;;;;;6.30;3.20;;;;;;;17.28;37.00;102391.38;4934873;28;20046;-85
2024/01/20 05:42:25;;;;;;;6.28;3.53;;;;;;;17.35;36.92;102389.06;4994029;28;20037;-85
2024/01/20 05:44:50;;;;;;;4.60;3.20;;;;;;;17.05;37.16;102339.75;4949248;28;20049;-84
2024/01/20 05:47:16;;;;;;;5.63;3.20;;;;;;;17.15;36.77;102367.00;4988839;28;20029;-86
2024/01/20 05:49:41;;;;;;;4.70;3.00;;;;;;;16.90;36.71;102329.53;4943818;28;20037;-85
2024/01/20 05:52:07;;;;;;;5.80;3.45;;;;;;;17.16;36.98;102366.03;4987628;28;20340;-86
2024/01/20 05:54:33;;;;;;;5.35;3.08;;;;;;;17.29;37.09;102385.16;5000999;28;20037;-85
2024/01/20 05:56:58;;;;;;;4.20;3.00;;;;;;;17.22;37.13;102373.44;4970627;28;20056;-85
2024/01/20 05:59:24;;;;;;;5.45;3.13;;;;;;;17.27;37.06;102384.44;5005839;28;20025;-85
2024/01/20 06:01:52;;;;;;;5.50;3.17;;;;;;;17.23;37.00;102375.09;4995672;28;20041;-85
2024/01/20 06:04:19;;;;;;;6.47;3.20;;;;;;;17.23;37.08;102377.72;4976140;28;20037;-85
2024/01/20 06:06:48;;;;;;;5.13;3.13;;;;;;;16.86;36.97;102328.06;4974175;28;20574;-86
2024/01/20 06:09:15;;;;;;;4.75;3.05;;;;;;;17.29;36.96;102382.53;4997271;28;20144;-85
2024/01/20 06:11:41;;;;;;;3.78;3.08;;;;;;;17.19;37.00;102373.69;5004915;28;20056;-86
2024/01/20 06:14:07;;;;;;;5.47;3.33;;;;;;;17.28;37.02;102394.00;4952355;28;20033;-86
2024/01/20 06:16:38;;;;;;;5.10;3.25;;;;;;;17.31;37.05;102395.56;4972299;28;20037;-88
2024/01/20 06:19:08;;;;;;;4.78;3.13;;;;;;;17.21;36.79;102387.56;5005166;28;20045;-86
2024/01/20 06:21:33;;;;;;;7.75;3.30;;;;;;;17.26;37.25;102395.94;4969472;28;20056;-86
2024/01/20 06:23:59;;;;;;;4.85;3.15;;;;;;;17.15;36.86;102381.00;5005175;28;20037;-85
2024/01/20 06:26:24;;;;;;;5.00;3.47;;;;;;;17.22;37.07;102397.97;4946811;28;21942;-85
2024/01/20 06:28:50;;;;;;;4.00;2.90;;;;;;;17.15;36.93;102383.63;4998951;28;20199;-85
2024/01/20 06:31:26;;;;;;;6.85;4.05;;;;;;;17.24;36.90;102407.56;4941118;28;20033;-86
2024/01/20 06:33:52;;;;;;;5.80;3.25;;;;;;;17.10;37.15;102393.72;5019180;28;20614;-85
2024/01/20 06:36:21;;;;;;;5.53;3.33;;;;;;;17.25;36.88;102411.84;4956525;28;20578;-85
2024/01/20 06:38:47;;;;;;;5.90;3.70;;;;;;;17.16;37.00;102400.25;4979934;28;20121;-85
2024/01/20 06:41:14;;;;;;;5.35;3.58;;;;;;;17.24;36.91;102397.88;4991123;28;20103;-86
2024/01/20 06:43:40;;;;;;;5.47;3.85;;;;;;;17.31;36.96;102428.00;4974080;28;20059;-87
2024/01/20 06:46:05;;;;;;;5.32;3.38;;;;;;;17.37;36.98;102432.75;4948439;28;20889;-86
2024/01/20 06:48:33;;;;;;;5.65;3.65;;;;;;;17.16;37.05;102400.25;5003208;28;20173;-86
2024/01/20 06:51:03;;;;;;;7.22;3.60;;;;;;;17.35;37.00;102431.19;4923342;28;21093;-86
2024/01/20 06:53:29;;;;;;;4.50;3.60;;;;;;;17.14;36.94;102413.56;5020706;28;20033;-86
2024/01/20 06:55:56;;;;;;;4.80;3.30;;;;;;;17.21;37.14;102424.41;4925896;28;20665;-86
2024/01/20 06:58:22;;;;;;;5.90;3.55;;;;;;;17.33;36.96;102438.38;4977418;28;20040;-85
2024/01/20 07:00:48;;;;;;;5.90;3.38;;;;;;;17.16;37.04;102414.25;4991432;28;20045;-85
2024/01/20 07:03:14;;;;;;;6.45;3.67;;;;;;;17.16;37.25;102421.31;4964873;28;20042;-85
2024/01/20 07:05:40;;;;;;;4.32;3.65;;;;;;;16.91;36.90;102383.81;4984479;28;20449;-86
2024/01/20 07:08:06;;;;;;;4.78;3.53;;;;;;;17.32;36.93;102452.53;4954087;28;20378;-86
2024/01/20 07:10:31;;;;;;;5.93;3.38;;;;;;;17.02;37.17;102406.63;4996625;28;20046;-86
2024/01/20 07:12:57;;;;;;;5.70;3.47;;;;;;;17.26;37.00;102435.44;4968656;28;20343;-86
2024/01/20 07:15:23;;;;;;;5.10;3.72;;;;;;;17.31;36.77;102454.31;4984454;28;20041;-86
2024/01/20 07:17:48;;;;;;;6.57;3.58;;;;;;;17.34;37.10;102454.06;4998863;28;20711;-86
2024/01/20 07:20:14;;;;;;;5.50;3.45;;;;;;;17.28;36.80;102408.97;4934876;28;21441;-86
2024/01/20 07:22:41;;;;;;;4.40;3.10;;;;;;;17.44;36.88;102427.84;5020812;28;20030;-85
2024/01/20 07:25:08;;;;;;;5.97;3.38;;;;;;;17.57;36.84;102436.38;4976294;28;20041;-86
2024/01/20 07:27:34;;;;;;;6.15;3.67;;;;;;;17.75;36.54;102445.44;4974700;28;20068;-85
2024/01/20 07:30:00;;;;;;;6.05;3.90;;;;;;;17.90;36.46;102443.34;4959399;28;20101;-86
2024/01/20 07:32:26;;;;;;;5.63;3.65;;;;;;;17.80;36.36;102416.09;5006264;28;20064;-86
2024/01/20 07:34:52;;;;;;;4.82;3.38;;;;;;;17.85;36.09;102427.06;4990231;28;20084;-85
2024/01/20 07:37:17;;;;;;;7.03;3.78;;;;;;;18.09;36.12;102447.91;5005464;28;20041;-88
2024/01/20 07:39:43;;;;;;;5.65;3.42;;;;;;;18.19;36.33;102463.78;4939167;28;20041;-86
2024/01/20 07:42:09;;;;;;;5.57;3.45;;;;;;;18.09;36.23;102437.34;5005505;28;20053;-86
2024/01/20 07:44:35;;;;;;;4.53;3.13;;;;;;;18.15;36.13;102436.03;4957503;28;20095;-86
2024/01/20 07:47:01;;;;;;;6.07;3.63;;;;;;;18.15;35.89;102428.94;5025538;28;20592;-86
2024/01/20 07:49:27;;;;;;;5.68;3.45;;;;;;;18.33;35.87;102461.66;4943905;28;20716;-86
2024/01/20 07:51:52;;;;;;;4.78;3.55;;;;;;;18.28;35.76;102457.72;5026026;28;20044;-86
2024/01/20 07:54:18;;;;;;;6.55;3.65;;;;;;;18.18;35.72;102435.75;4945103;28;20487;-87
2024/01/20 07:56:43;;;;;;;5.97;3.92;;;;;;;17.94;35.85;102407.84;4980911;28;20030;-86
2024/01/20 07:59:09;;;;;;;4.88;3.47;;;;;;;18.23;35.77;102458.13;4972192;28;20827;-87
2024/01/20 08:01:34;;;;;;;5.55;3.75;;;;;;;18.28;35.82;102469.13;4976244;28;20056;-86
2024/01/20 08:04:01;;;;;;;4.80;3.50;;;;;;;18.06;35.78;102434.97;4925757;28;20053;-86
2024/01/20 08:06:29;;;;;;;5.25;3.55;;;;;;;18.33;35.76;102495.94;4985733;28;20037;-87
2024/01/20 08:08:55;;;;;;;5.68;3.42;;;;;;;18.01;35.86;102442.44;4942333;28;20099;-87
2024/01/20 08:11:20;;;;;;;5.40;3.35;;;;;;;18.18;35.98;102480.59;4990007;28;21715;-86
2024/01/20 08:13:46;;;;;;;5.75;3.75;;;;;;;18.01;35.82;102466.16;4941727;28;20042;-88
2024/01/20 08:16:11;;;;;;;6.07;4.05;;;;;;;17.99;35.76;102457.56;4993468;28;20065;-84
2024/01/20 08:18:37;;;;;;;8.43;4.60;;;;;;;17.92;35.95;102462.50;4990192;28;20045;-87
2024/01/20 08:21:06;;;;;;;6.53;4.10;;;;;;;18.07;35.75;102484.09;4958098;28;20045;-88
2024/01/20 08:23:33;;;;;;;5.47;3.65;;;;;;;18.12;35.83;102493.28;5007348;28;20767;-88
2024/01/20 08:25:58;;;;;;;6.05;3.33;;;;;;;17.39;35.91;102375.53;4956641;28;20757;-88
2024/01/20 08:28:24;;;;;;;6.53;3.75;;;;;;;18.05;35.98;102486.88;4991365;28;20041;-88
2024/01/20 08:30:49;;;;;;;5.75;3.78;;;;;;;18.04;35.78;102487.84;4938034;28;20037;-87
2024/01/20 08:33:15;;;;;;;7.78;4.22;;;;;;;17.97;35.99;102486.69;4972019;28;20049;-87
2024/01/20 08:35:40;;;;;;;5.75;3.90;;;;;;;17.85;35.87;102465.78;4983521;28;20049;-87
2024/01/20 08:38:06;;;;;;;5.68;3.90;;;;;;;17.91;35.91;102489.81;4942599;28;20418;-91
2024/01/20 08:40:32;;;;;;;4.68;3.53;;;;;;;17.04;36.05;102343.34;5003823;28;20049;-90
2024/01/20 08:42:58;;;;;;;6.13;3.70;;;;;;;17.90;35.73;102488.13;4975935;28;20050;-88
2024/01/20 08:45:23;;;;;;;5.32;3.85;;;;;;;17.86;36.15;102492.00;4999384;28;20062;-91
2024/01/20 08:47:49;;;;;;;5.65;3.58;;;;;;;17.83;35.85;102475.59;4983954;28;20054;-95
2024/01/20 08:50:18;;;;;;;7.82;4.32;;;;;;;17.48;36.12;102442.41;4992983;28;20501;-94
2024/01/20 08:52:43;;;;;;;5.45;3.78;;;;;;;17.23;35.88;102396.16;5004183;28;20132;-94
2024/01/20 08:55:09;;;;;;;4.95;3.40;;;;;;;16.35;35.82;102235.78;4961995;28;20056;-93
2024/01/20 08:57:36;;;;;;;5.60;3.58;;;;;;;17.05;36.09;102351.09;5003278;28;20026;-95
2024/01/20 09:00:03;;;;;;;5.68;4.00;;;;;;;17.38;36.08;102404.63;4978803;28;21291;-94
2024/01/20 09:02:28;;;;;;;7.82;4.38;;;;;;;18.23;35.80;102525.84;4992363;28;20061;-86
2024/01/20 09:04:54;;;;;;;8.90;4.15;;;;;;;18.22;35.92;102529.47;4959058;28;20166;-91
2024/01/20 09:07:20;;;;;;;6.03;3.50;;;;;;;17.81;36.00;102471.31;4955067;28;20125;-91
2024/01/20 09:09:47;;;;;;;4.88;3.35;;;;;;;18.20;35.83;102532.22;4995488;28;20113;-90
2024/01/20 09:12:13;;;;;;;6.68;3.95;;;;;;;18.28;35.91;102537.69;4973204;28;20046;-90
2024/01/20 09:14:38;;;;;;;5.05;4.03;;;;;;;18.28;36.02;102550.88;4997797;28;20053;-90
2024/01/20 09:17:04;;;;;;;8.25;3.70;;;;;;;17.51;35.90;102413.19;4921798;28;20046;-89
2024/01/20 09:19:30;;;;;;;6.63;4.07;;;;;;;18.39;35.98;102568.44;4985582;28;20038;-89
2024/01/20 09:21:55;;;;;;;5.03;3.80;;;;;;;18.13;35.93;102523.13;4952208;28;20038;-90
2024/01/20 09:24:21;;;;;;;5.22;3.25;;;;;;;18.34;35.95;102566.19;4985023;28;20033;-89
2024/01/20 09:26:47;;;;;;;5.03;3.40;;;;;;;17.89;35.95;102483.00;4959126;28;20045;-90
2024/01/20 09:29:12;;;;;;;6.18;3.55;;;;;;;18.53;35.93;102576.03;4994138;28;20046;-89
2024/01/20 09:31:38;;;;;;;4.55;3.25;;;;;;;18.75;35.59;102571.63;4938137;28;20099;-90
2024/01/20 09:34:03;;;;;;;5.10;3.47;;;;;;;18.62;35.44;102535.69;4996438;28;20030;-88
2024/01/20 09:36:29;;;;;;;5.00;3.22;;;;;;;18.86;35.42;102555.72;4947621;28;20454;-89
2024/01/20 09:38:55;;;;;;;5.03;3.35;;;;;;;18.94;35.25;102554.06;4965142;28;20045;-89
2024/01/20 09:41:20;;;;;;;4.63;3.25;;;;;;;18.71;35.40;102529.66;4999320;28;20046;-90
2024/01/20 09:43:47;;;;;;;6.55;3.65;;;;;;;19.03;35.26;102573.59;5010115;28;20054;-88
2024/01/20 09:46:14;;;;;;;6.72;3.78;;;;;;;18.79;35.28;102549.28;4949870;28;20116;-89
2024/01/20 09:48:39;;;;;;;10.57;5.47;;;;;;;18.05;33.83;102393.78;4980099;28;20081;-86
2024/01/20 09:51:06;;;;;;;7.38;4.57;;;;;;;19.06;35.31;102580.41;4936096;28;20045;-88
2024/01/20 09:53:31;;;;;;;8.70;4.38;;;;;;;19.13;35.13;102600.00;4990133;28;20429;-85
2024/01/20 09:55:57;;;;;;;14.85;5.65;;;;;;;18.78;35.48;102527.31;4962310;28;20053;-87
2024/01/20 09:58:23;;;;;;;12.27;4.47;;;;;;;18.95;35.60;102539.91;5015805;28;20864;-83
2024/01/20 10:00:51;;;;;;;9.52;4.55;;;;;;;19.14;35.38;102562.91;4979786;28;20041;-84
2024/01/20 10:03:20;;;;;;;20.08;4.75;;;;;;;19.45;35.52;102592.78;5021802;28;20045;-83
2024/01/20 10:05:46;;;;;;;7.78;4.45;;;;;;;19.59;35.38;102604.81;4984175;28;21483;-84
2024/01/20 10:08:12;;;;;;;8.30;4.03;;;;;;;19.63;35.34;102592.16;4999840;28;20547;-84
2024/01/20 10:10:38;;;;;;;8.55;4.15;;;;;;;19.76;35.35;102600.69;4951743;28;20048;-86
2024/01/20 10:13:04;;;;;;;9.23;4.05;;;;;;;19.43;35.37;102538.41;4981806;28;20029;-85
2024/01/20 10:15:30;;;;;;;7.43;4.03;;;;;;;19.69;35.22;102573.94;4948693;28;20042;-86
2024/01/20 10:17:57;;;;;;;9.20;4.38;;;;;;;19.76;35.27;102585.66;5016388;28;20116;-85
2024/01/20 10:20:34;;;;;;;5.47;3.83;;;;;;;19.55;35.53;102556.66;4970072;28;20037;-84
2024/01/20 10:23:01;;;;;;;8.55;3.85;;;;;;;19.75;35.48;102591.91;4988979;28;20037;-84
2024/01/20 10:25:26;;;;;;;6.43;3.60;;;;;;;19.69;35.59;102578.38;4922359;28;20030;-85
2024/01/20 10:27:52;;;;;;;7.80;4.20;;;;;;;19.75;35.49;102584.00;4987908;28;20041;-88
2024/01/20 10:30:20;;;;;;;7.00;4.43;;;;;;;19.90;35.50;102613.47;4997958;28;20507;-90
2024/01/20 10:32:46;;;;;;;6.53;3.80;;;;;;;19.92;35.54;102622.09;4963769;28;20346;-87
2024/01/20 10:35:13;;;;;;;10.02;4.15;;;;;;;19.83;35.41;102601.78;5017382;28;20553;-90
2024/01/20 10:37:40;;;;;;;7.25;4.20;;;;;;;19.83;35.44;102599.97;4945488;28;20045;-84
2024/01/20 10:40:11;;;;;;;6.53;3.78;;;;;;;19.58;35.27;102540.56;5018810;28;20080;-89
2024/01/20 10:42:44;;;;;;;8.65;4.05;;;;;;;20.07;35.17;102617.25;4955656;28;20631;-89
2024/01/20 10:45:15;;;;;;;7.20;3.78;;;;;;;19.71;34.91;102548.22;4998685;28;20044;-83
2024/01/20 10:47:44;;;;;;;5.50;3.50;;;;;;;20.17;35.03;102615.47;4988479;28;20040;-82
2024/01/20 10:50:10;;;;;;;7.28;4.05;;;;;;;20.11;34.89;102589.59;4966632;28;20037;-84
2024/01/20 10:52:37;;;;;;;7.00;3.75;;;;;;;20.21;34.68;102607.09;4969716;28;20044;-84
2024/01/20 10:55:05;;;;;;;9.02;3.72;;;;;;;20.14;34.78;102592.78;4959904;28;20292;-84
2024/01/20 10:57:32;;;;;;;6.63;3.70;;;;;;;20.25;34.81;102615.59;4997177;28;20296;-90
2024/01/20 11:00:01;;;;;;;7.03;3.92;;;;;;;20.26;34.67;102605.84;4962553;28;22583;-84
2024/01/20 11:02:27;;;;;;;5.90;3.95;;;;;;;20.31;34.83;102616.88;5018087;28;20033;-88
2024/01/20 11:04:52;;;;;;;10.52;4.47;;;;;;;20.23;33.79;102593.75;4999025;28;20631;-85
2024/01/20 11:07:27;;;;;;;5.60;3.90;;;;;;;20.14;34.68;102611.28;5000572;28;20045;-92
2024/01/20 11:09:57;;;;;;;5.28;3.00;;;;;;;20.15;35.04;102614.78;4973445;28;20041;-88
2024/01/20 11:12:23;;;;;;;;;;;;;;;20.31;34.93;102625.63;5021768;28;20080;-90
2024/01/20 11:14:57;;;;;;;5.63;3.53;;;;;;;20.49;34.94;102607.28;4981305;28;19925;-86
2024/01/20 11:17:24;;;;;;;4.97;3.10;;;;;;;20.68;34.63;102607.25;4983412;28;20042;-86
2024/01/20 11:19:53;;;;;;;6.82;3.60;;;;;;;20.49;34.59;102573.72;4991404;28;20056;-83